createdAt,value
2023-03-11T00:00:13.551Z,99.90
2023-03-11T00:02:41.044Z,99.90
2023-03-11T00:05:08.283Z,99.90
2023-03-11T00:07:35.125Z,99.90
2023-03-11T00:10:01.857Z,99.90
2023-03-11T00:12:28.781Z,99.90
2023-03-11T00:14:55.577Z,99.90
2023-03-11T00:17:22.366Z,99.90
2023-03-11T00:19:49.103Z,99.90
2023-03-11T00:22:15.796Z,99.90
2023-03-11T00:24:42.590Z,99.90
2023-03-11T00:27:09.365Z,99.90
2023-03-11T00:29:36.141Z,99.90
2023-03-11T00:32:02.892Z,99.90
2023-03-11T00:34:29.769Z,99.90
2023-03-11T00:36:56.629Z,99.90
2023-03-11T00:39:23.976Z,99.90
2023-03-11T00:41:51.743Z,99.90
2023-03-11T00:44:18.638Z,99.90
2023-03-11T00:46:45.397Z,99.90
2023-03-11T00:49:12.657Z,99.90
2023-03-11T00:51:39.712Z,99.90
2023-03-11T00:54:06.497Z,99.90
2023-03-11T00:56:33.333Z,99.90
2023-03-11T00:59:00.222Z,99.90
2023-03-11T01:01:27.087Z,99.90
2023-03-11T01:03:53.843Z,99.90
2023-03-11T01:06:20.665Z,99.90
2023-03-11T01:08:47.449Z,99.90
2023-03-11T01:11:14.277Z,99.90
2023-03-11T01:13:41.010Z,99.90
2023-03-11T01:16:09.359Z,99.90
2023-03-11T01:18:36.194Z,99.90
2023-03-11T01:21:03.151Z,99.90
2023-03-11T01:23:30.113Z,99.90
2023-03-11T01:25:56.928Z,99.90
2023-03-11T01:28:26.435Z,99.90
2023-03-11T01:30:53.262Z,99.90
2023-03-11T01:33:21.121Z,99.90
2023-03-11T01:35:49.294Z,99.90
2023-03-11T01:38:17.202Z,99.90
2023-03-11T01:40:46.222Z,99.90
2023-03-11T01:43:32.941Z,99.90
2023-03-11T01:46:02.145Z,99.90
2023-03-11T01:48:30.169Z,99.90
2023-03-11T01:50:57.351Z,99.90
2023-03-11T01:53:24.730Z,99.90
2023-03-11T01:55:51.544Z,99.90
2023-03-11T01:58:20.785Z,99.90
2023-03-11T02:00:47.678Z,99.90
2023-03-11T02:03:17.861Z,99.90
2023-03-11T02:05:45.196Z,99.90
2023-03-11T02:08:12.036Z,99.90
2023-03-11T02:10:40.459Z,99.90
2023-03-11T02:13:09.076Z,99.90
2023-03-11T02:15:36.643Z,99.90
2023-03-11T02:18:05.464Z,99.90
2023-03-11T02:20:40.723Z,99.90
2023-03-11T02:23:13.045Z,99.90
2023-03-11T02:25:59.221Z,99.90
2023-03-11T02:28:26.871Z,99.90
2023-03-11T02:30:55.909Z,99.90
2023-03-11T02:33:24.819Z,99.90
2023-03-11T02:35:51.745Z,99.90
2023-03-11T02:38:18.894Z,99.90
2023-03-11T02:40:48.789Z,99.90
2023-03-11T02:43:19.749Z,99.90
2023-03-11T02:45:48.194Z,99.90
2023-03-11T02:48:15.475Z,99.90
2023-03-11T02:50:43.918Z,99.90
2023-03-11T02:53:10.865Z,99.90
2023-03-11T02:55:37.676Z,99.90
2023-03-11T02:58:06.582Z,99.90
2023-03-11T03:00:34.540Z,99.90
2023-03-11T03:03:05.713Z,99.90
2023-03-11T03:05:32.682Z,99.90
2023-03-11T03:08:02.751Z,99.90
2023-03-11T03:10:30.024Z,99.90
2023-03-11T03:12:57.511Z,99.90
2023-03-11T03:15:25.570Z,99.90
2023-03-11T03:17:52.480Z,99.90
2023-03-11T03:20:22.627Z,99.90
2023-03-11T03:22:52.840Z,99.90
2023-03-11T03:25:22.743Z,99.90
2023-03-11T03:27:50.431Z,99.90
2023-03-11T03:30:17.398Z,99.90
2023-03-11T03:32:44.569Z,99.90
2023-03-11T03:35:15.088Z,99.90
2023-03-11T03:37:55.232Z,99.90
2023-03-11T03:40:22.665Z,99.90
2023-03-11T03:42:50.435Z,99.90
2023-03-11T03:45:17.558Z,99.90
2023-03-11T03:47:45.422Z,99.90
2023-03-11T03:50:13.056Z,99.90
2023-03-11T03:52:43.664Z,99.90
2023-03-11T03:55:10.529Z,99.90
2023-03-11T03:57:37.695Z,99.90
2023-03-11T04:00:05.573Z,99.90
2023-03-11T04:02:40.521Z,99.90
2023-03-11T04:05:13.633Z,99.90
2023-03-11T04:07:42.034Z,99.90
2023-03-11T04:10:09.733Z,99.90
2023-03-11T04:12:37.502Z,99.90
2023-03-11T04:15:04.843Z,99.90
2023-03-11T04:17:31.911Z,99.90
2023-03-11T04:19:58.837Z,99.90
2023-03-11T04:22:26.061Z,99.90
2023-03-11T04:24:52.858Z,99.90
2023-03-11T04:27:20.143Z,99.90
2023-03-11T04:29:47.327Z,99.90
2023-03-11T04:32:14.552Z,99.90
2023-03-11T04:34:43.802Z,99.90
2023-03-11T04:37:12.443Z,99.90
2023-03-11T04:39:39.190Z,99.90
2023-03-11T04:42:06.515Z,99.90
2023-03-11T04:44:35.413Z,99.90
2023-03-11T04:47:02.958Z,99.90
2023-03-11T04:49:29.994Z,99.90
2023-03-11T04:51:56.790Z,99.90
2023-03-11T04:54:23.977Z,99.90
2023-03-11T04:56:51.327Z,99.90
2023-03-11T04:59:18.155Z,99.90
2023-03-11T05:01:46.768Z,99.90
2023-03-11T05:04:13.703Z,99.90
2023-03-11T05:06:41.625Z,99.90
2023-03-11T05:09:08.696Z,99.90
2023-03-11T05:11:38.149Z,99.90
2023-03-11T05:14:05.006Z,99.90
2023-03-11T05:16:31.812Z,99.90
2023-03-11T05:18:58.674Z,99.90
2023-03-11T05:21:25.498Z,99.90
2023-03-11T05:23:53.200Z,99.90
2023-03-11T05:26:19.983Z,99.90
2023-03-11T05:28:47.385Z,99.90
2023-03-11T05:31:14.336Z,99.90
2023-03-11T05:33:41.682Z,99.90
2023-03-11T05:36:11.956Z,99.90
2023-03-11T05:38:42.203Z,99.90
2023-03-11T05:41:09.661Z,99.90
2023-03-11T05:43:36.940Z,99.90
2023-03-11T05:46:03.949Z,99.90
2023-03-11T05:48:31.737Z,99.90
2023-03-11T05:50:59.405Z,99.90
2023-03-11T05:53:27.024Z,99.90
2023-03-11T05:56:00.771Z,99.90
2023-03-11T05:58:29.529Z,99.90
2023-03-11T06:00:56.747Z,99.90
2023-03-11T06:03:23.736Z,99.90
2023-03-11T06:05:50.997Z,99.90
2023-03-11T06:08:19.426Z,99.90
2023-03-11T06:10:48.550Z,99.90
2023-03-11T06:13:16.883Z,99.90
2023-03-11T06:15:49.020Z,99.90
2023-03-11T06:18:15.968Z,99.90
2023-03-11T06:20:42.909Z,99.90
2023-03-11T06:23:09.734Z,99.90
2023-03-11T06:25:36.600Z,99.90
2023-03-11T06:28:04.008Z,99.90
2023-03-11T06:30:30.892Z,99.90
2023-03-11T06:33:15.024Z,99.90
2023-03-11T06:35:42.762Z,99.90
2023-03-11T06:38:09.545Z,99.90
2023-03-11T06:40:37.525Z,99.90
2023-03-11T06:43:04.481Z,99.90
2023-03-11T06:45:34.142Z,99.90
2023-03-11T06:48:01.533Z,99.90
2023-03-11T06:50:28.996Z,99.90
2023-03-11T06:52:59.270Z,99.90
2023-03-11T06:55:26.272Z,99.90
2023-03-11T06:57:53.072Z,99.90
2023-03-11T07:00:20.051Z,99.90
2023-03-11T07:02:52.236Z,99.90
2023-03-11T07:05:19.946Z,99.90
2023-03-11T07:07:48.733Z,99.90
2023-03-11T07:10:15.612Z,99.90
2023-03-11T07:12:42.503Z,99.90
2023-03-11T07:15:09.686Z,99.90
2023-03-11T07:17:36.772Z,99.90
2023-03-11T07:20:03.838Z,99.90
2023-03-11T07:22:30.717Z,99.90
2023-03-11T07:24:57.460Z,99.90
2023-03-11T07:27:24.230Z,99.90
2023-03-11T07:29:51.093Z,99.90
2023-03-11T07:32:17.988Z,99.90
2023-03-11T07:34:44.850Z,99.90
2023-03-11T07:37:11.640Z,99.90
2023-03-11T07:39:39.316Z,99.90
2023-03-11T07:42:06.345Z,99.90
2023-03-11T07:44:36.785Z,99.90
2023-03-11T07:47:04.461Z,99.90
2023-03-11T07:49:31.434Z,99.90
2023-03-11T07:51:58.214Z,99.90
2023-03-11T07:54:25.074Z,99.90
2023-03-11T07:56:51.889Z,99.90
2023-03-11T07:59:18.638Z,99.90
2023-03-11T08:01:47.297Z,99.90
2023-03-11T08:04:16.546Z,99.90
2023-03-11T08:06:44.882Z,99.90
2023-03-11T08:09:12.575Z,99.90
2023-03-11T08:11:39.660Z,99.90
2023-03-11T08:14:06.965Z,99.90
2023-03-11T08:16:33.775Z,99.90
2023-03-11T08:19:00.526Z,99.90
2023-03-11T08:21:29.256Z,99.90
2023-03-11T08:24:00.290Z,99.90
2023-03-11T08:26:27.202Z,99.90
2023-03-11T08:28:54.731Z,99.90
2023-03-11T08:31:24.152Z,99.90
2023-03-11T08:33:51.654Z,99.90
2023-03-11T08:36:19.245Z,99.90
2023-03-11T08:38:46.465Z,99.90
2023-03-11T08:41:13.435Z,99.90
2023-03-11T08:43:40.368Z,99.90
2023-03-11T08:46:07.274Z,99.90
2023-03-11T08:48:37.384Z,99.90
2023-03-11T08:51:13.483Z,99.90
2023-03-11T08:53:40.326Z,99.90
2023-03-11T08:56:07.153Z,99.90
2023-03-11T08:58:34.010Z,99.90
2023-03-11T09:01:00.861Z,99.90
2023-03-11T09:03:30.624Z,99.90
2023-03-11T09:05:58.363Z,99.90
2023-03-11T09:08:25.178Z,99.90
2023-03-11T09:10:51.888Z,99.90
2023-03-11T09:13:18.739Z,99.90
2023-03-11T09:15:45.635Z,99.90
2023-03-11T09:18:13.321Z,99.90
2023-03-11T09:20:40.390Z,99.90
2023-03-11T09:23:07.398Z,99.90
2023-03-11T09:25:34.202Z,99.90
2023-03-11T09:28:01.029Z,99.90
2023-03-11T09:30:27.931Z,99.90
2023-03-11T09:32:54.713Z,99.90
2023-03-11T09:35:21.469Z,99.90
2023-03-11T09:37:48.262Z,99.90
2023-03-11T09:40:22.357Z,99.90
2023-03-11T09:43:04.666Z,99.90
2023-03-11T09:45:34.697Z,99.90
2023-03-11T09:48:04.409Z,99.90
2023-03-11T09:50:32.726Z,99.90
2023-03-11T09:53:02.275Z,99.90
2023-03-11T09:55:38.035Z,99.90
2023-03-11T09:58:09.570Z,99.70
2023-03-11T10:00:36.387Z,96.80
2023-03-11T10:03:05.908Z,95.40
2023-03-11T10:05:33.586Z,98.80
2023-03-11T10:08:03.601Z,99.10
2023-03-11T10:10:33.189Z,99.90
2023-03-11T10:13:21.314Z,99.90
2023-03-11T10:16:06.567Z,99.90
2023-03-11T10:18:47.731Z,99.90
2023-03-11T10:21:14.518Z,97.00
2023-03-11T10:23:47.355Z,94.90
2023-03-11T10:26:18.153Z,96.50
2023-03-11T10:29:02.707Z,98.10
2023-03-11T10:31:29.517Z,99.90
2023-03-11T10:33:59.248Z,99.90
2023-03-11T10:36:31.485Z,99.90
2023-03-11T10:38:58.588Z,99.90
2023-03-11T10:41:36.852Z,99.90
2023-03-11T10:44:10.095Z,99.90
2023-03-11T10:46:36.923Z,99.90
2023-03-11T10:49:05.796Z,99.90
2023-03-11T10:51:34.734Z,99.90
2023-03-11T10:54:03.484Z,99.90
2023-03-11T10:56:31.958Z,98.30
2023-03-11T10:58:59.491Z,97.10
2023-03-11T11:01:26.783Z,97.80
2023-03-11T11:03:58.154Z,99.10
2023-03-11T11:06:26.702Z,99.60
2023-03-11T11:09:06.477Z,99.90
2023-03-11T11:11:35.841Z,99.90
2023-03-11T11:14:02.703Z,99.90
2023-03-11T11:16:29.785Z,99.90
2023-03-11T11:18:56.534Z,99.90
2023-03-11T11:21:26.293Z,99.90
2023-03-11T11:24:16.051Z,99.90
2023-03-11T11:26:43.085Z,99.40
2023-03-11T11:29:09.789Z,99.00
2023-03-11T11:31:37.986Z,95.90
2023-03-11T11:34:22.249Z,94.70
2023-03-11T11:36:50.241Z,92.60
2023-03-11T11:39:20.146Z,91.30
2023-03-11T11:41:48.220Z,91.50
2023-03-11T11:44:18.770Z,91.00
2023-03-11T11:46:54.310Z,86.30
2023-03-11T11:49:21.206Z,90.20
2023-03-11T11:52:00.607Z,91.00
2023-03-11T11:54:30.476Z,92.30
2023-03-11T11:56:58.454Z,92.40
2023-03-11T11:59:25.430Z,92.10
2023-03-11T12:02:18.849Z,93.20
2023-03-11T12:04:45.617Z,93.20
2023-03-11T12:07:15.402Z,93.10
2023-03-11T12:10:09.758Z,90.10
2023-03-11T12:12:46.185Z,87.90
2023-03-11T12:15:38.374Z,88.00
2023-03-11T12:18:10.650Z,90.10
2023-03-11T12:20:40.435Z,89.20
2023-03-11T12:23:13.335Z,87.50
2023-03-11T12:25:40.145Z,88.60
2023-03-11T12:28:12.952Z,87.10
2023-03-11T12:30:45.161Z,90.00
2023-03-11T12:33:24.442Z,92.10
2023-03-11T12:35:56.066Z,93.00
2023-03-11T12:38:27.354Z,94.20
2023-03-11T12:41:00.249Z,96.80
2023-03-11T12:43:30.138Z,97.40
2023-03-11T12:45:59.481Z,98.70
2023-03-11T12:48:35.229Z,99.90
2023-03-11T12:51:02.428Z,99.90
2023-03-11T12:53:48.852Z,99.90
2023-03-11T12:56:29.127Z,99.90
2023-03-11T12:59:19.356Z,99.90
2023-03-11T13:02:16.183Z,99.90
2023-03-11T13:04:51.202Z,94.40
2023-03-11T13:07:18.013Z,92.80
2023-03-11T13:09:44.842Z,94.00
2023-03-11T13:12:30.405Z,95.80
2023-03-11T13:15:15.809Z,96.20
2023-03-11T13:17:42.830Z,97.50
2023-03-11T13:20:28.486Z,97.30
2023-03-11T13:22:58.548Z,97.00
2023-03-11T13:25:26.538Z,93.20
2023-03-11T13:27:55.338Z,90.30
2023-03-11T13:30:24.922Z,89.30
2023-03-11T13:33:11.721Z,90.10
2023-03-11T13:35:58.919Z,92.50
2023-03-11T13:38:39.906Z,94.00
2023-03-11T13:41:22.447Z,95.20
2023-03-11T13:43:50.482Z,93.70
2023-03-11T13:46:33.935Z,90.00
2023-03-11T13:49:05.204Z,84.10
2023-03-11T13:51:41.401Z,79.90
2023-03-11T13:54:25.382Z,75.30
2023-03-11T13:56:55.849Z,76.80
2023-03-11T13:59:23.703Z,75.70
2023-03-11T14:01:51.230Z,78.70
2023-03-11T14:04:25.443Z,82.10
2023-03-11T14:06:52.637Z,85.30
2023-03-11T14:09:20.687Z,89.60
2023-03-11T14:11:48.969Z,90.20
2023-03-11T14:14:24.793Z,91.00
2023-03-11T14:16:51.901Z,91.90
2023-03-11T14:19:19.228Z,91.80
2023-03-11T14:21:46.992Z,91.10
2023-03-11T14:24:40.087Z,91.90
2023-03-11T14:27:09.386Z,93.00
2023-03-11T14:29:37.950Z,93.30
2023-03-11T14:32:23.476Z,92.50
2023-03-11T14:34:50.272Z,92.80
2023-03-11T14:37:32.241Z,92.60
2023-03-11T14:39:59.391Z,92.10
2023-03-11T14:42:33.565Z,93.30
2023-03-11T14:45:08.005Z,93.30
2023-03-11T14:47:34.888Z,93.80
2023-03-11T14:50:02.163Z,93.80
2023-03-11T14:52:41.834Z,93.20
2023-03-11T14:55:15.911Z,94.50
2023-03-11T14:57:46.114Z,95.20
2023-03-11T15:00:24.136Z,95.40
2023-03-11T15:02:51.057Z,93.40
2023-03-11T15:05:21.430Z,94.40
2023-03-11T15:07:49.698Z,93.40
2023-03-11T15:10:16.403Z,93.70
2023-03-11T15:12:43.898Z,93.90
2023-03-11T15:15:27.178Z,93.30
2023-03-11T15:17:55.788Z,92.50
2023-03-11T15:20:23.727Z,92.40
2023-03-11T15:22:58.072Z,93.10
2023-03-11T15:25:24.945Z,93.90
2023-03-11T15:27:51.644Z,93.90
2023-03-11T15:30:18.575Z,94.60
2023-03-11T15:32:46.065Z,95.10
2023-03-11T15:35:14.871Z,95.40
2023-03-11T15:37:42.706Z,94.20
2023-03-11T15:40:43.976Z,95.20
2023-03-11T15:43:15.000Z,95.80
2023-03-11T15:45:42.531Z,98.20
2023-03-11T15:48:13.107Z,98.80
2023-03-11T15:50:54.691Z,99.00
2023-03-11T15:53:22.456Z,96.00
2023-03-11T15:55:49.393Z,96.20
2023-03-11T15:58:17.101Z,94.10
2023-03-11T16:00:51.950Z,95.50
2023-03-11T16:03:19.491Z,95.60
2023-03-11T16:05:46.662Z,94.80
2023-03-11T16:08:13.504Z,95.00
2023-03-11T16:10:40.563Z,95.70
2023-03-11T16:13:10.091Z,97.00
2023-03-11T16:15:38.063Z,96.70
2023-03-11T16:18:06.006Z,97.50
2023-03-11T16:20:40.919Z,98.80
2023-03-11T16:23:12.690Z,99.00
2023-03-11T16:25:40.577Z,98.80
2023-03-11T16:28:07.832Z,99.80
2023-03-11T16:30:34.926Z,99.90
2023-03-11T16:33:04.579Z,99.90
2023-03-11T16:35:32.128Z,99.90
2023-03-11T16:37:59.047Z,99.90
2023-03-11T16:40:27.323Z,99.90
2023-03-11T16:43:01.694Z,99.90
2023-03-11T16:45:28.546Z,99.90
2023-03-11T16:47:55.245Z,99.90
2023-03-11T16:50:24.330Z,99.90
2023-03-11T16:52:51.696Z,99.90
2023-03-11T16:55:18.620Z,99.90
2023-03-11T16:57:45.550Z,99.90
2023-03-11T17:00:13.226Z,99.90
2023-03-11T17:02:39.987Z,99.90
2023-03-11T17:05:07.397Z,99.90
2023-03-11T17:07:34.214Z,99.90
2023-03-11T17:10:01.070Z,99.90
2023-03-11T17:12:27.934Z,99.90
2023-03-11T17:14:55.174Z,99.90
2023-03-11T17:17:22.459Z,99.90
2023-03-11T17:19:49.355Z,99.90
2023-03-11T17:22:16.183Z,99.90
2023-03-11T17:24:43.588Z,99.90
2023-03-11T17:27:10.484Z,99.90
2023-03-11T17:29:37.335Z,99.90
2023-03-11T17:32:06.517Z,99.90
2023-03-11T17:34:33.280Z,99.90
2023-03-11T17:37:00.047Z,99.90
2023-03-11T17:39:26.758Z,99.90
2023-03-11T17:41:53.552Z,99.90
2023-03-11T17:44:20.302Z,99.90
2023-03-11T17:46:47.186Z,99.90
2023-03-11T17:49:14.554Z,99.90
2023-03-11T17:51:41.608Z,99.90
2023-03-11T17:54:08.314Z,99.90
2023-03-11T17:56:35.182Z,99.90
2023-03-11T17:59:01.978Z,99.90
2023-03-11T18:01:29.289Z,99.90
2023-03-11T18:03:56.330Z,99.90
2023-03-11T18:06:23.397Z,99.90
2023-03-11T18:08:50.245Z,99.90
2023-03-11T18:11:19.387Z,99.90
2023-03-11T18:13:46.232Z,99.90
2023-03-11T18:16:13.017Z,99.90
2023-03-11T18:18:40.714Z,99.90
2023-03-11T18:21:17.847Z,99.90
2023-03-11T18:23:44.934Z,99.90
2023-03-11T18:26:16.398Z,99.90
2023-03-11T18:28:43.318Z,99.90
2023-03-11T18:31:14.772Z,99.90
2023-03-11T18:33:42.782Z,99.90
2023-03-11T18:36:12.807Z,99.90
2023-03-11T18:38:39.707Z,99.90
2023-03-11T18:41:06.675Z,99.90
2023-03-11T18:43:33.463Z,99.90
2023-03-11T18:46:00.660Z,99.90
2023-03-11T18:48:27.484Z,99.90
2023-03-11T18:50:54.665Z,99.90
2023-03-11T18:53:21.778Z,99.90
2023-03-11T18:55:48.605Z,99.90
2023-03-11T18:58:15.350Z,99.90
2023-03-11T19:00:42.121Z,99.90
2023-03-11T19:03:10.612Z,99.90
2023-03-11T19:05:37.533Z,99.90
2023-03-11T19:08:04.653Z,99.90
2023-03-11T19:10:31.452Z,99.90
2023-03-11T19:12:58.157Z,99.90
2023-03-11T19:15:24.973Z,99.90
2023-03-11T19:18:04.259Z,99.90
2023-03-11T19:20:33.493Z,99.90
2023-03-11T19:23:00.296Z,99.90
2023-03-11T19:25:28.058Z,99.90
2023-03-11T19:27:55.235Z,99.90
2023-03-11T19:30:22.141Z,99.90
2023-03-11T19:32:52.673Z,99.90
2023-03-11T19:35:20.984Z,99.90
2023-03-11T19:37:48.360Z,99.90
2023-03-11T19:40:15.213Z,99.90
2023-03-11T19:42:42.083Z,99.90
2023-03-11T19:45:09.285Z,99.90
2023-03-11T19:47:36.082Z,99.90
2023-03-11T19:50:03.012Z,99.90
2023-03-11T19:52:29.828Z,99.90
2023-03-11T19:54:56.606Z,99.90
2023-03-11T19:57:23.323Z,99.90
2023-03-11T19:59:50.082Z,99.90
2023-03-11T20:02:17.062Z,99.90
2023-03-11T20:04:43.875Z,99.90
2023-03-11T20:07:10.666Z,99.90
2023-03-11T20:09:37.558Z,99.90
2023-03-11T20:12:04.770Z,99.90
2023-03-11T20:14:31.609Z,99.90
2023-03-11T20:16:58.374Z,99.90
2023-03-11T20:19:25.303Z,99.90
2023-03-11T20:21:52.119Z,99.90
2023-03-11T20:24:19.052Z,99.90
2023-03-11T20:26:45.761Z,99.90
2023-03-11T20:29:12.670Z,99.90
2023-03-11T20:31:39.532Z,99.90
2023-03-11T20:34:06.447Z,99.90
2023-03-11T20:36:33.678Z,99.90
2023-03-11T20:39:01.014Z,99.90
2023-03-11T20:41:28.212Z,99.90
2023-03-11T20:43:56.156Z,99.90
2023-03-11T20:46:22.992Z,99.90
2023-03-11T20:48:49.874Z,99.90
2023-03-11T20:51:20.293Z,99.90
2023-03-11T20:53:48.053Z,99.90
2023-03-11T20:56:16.824Z,99.90
2023-03-11T20:58:45.678Z,99.90
2023-03-11T21:01:26.189Z,99.90
2023-03-11T21:03:54.425Z,99.90
2023-03-11T21:06:26.463Z,99.90
2023-03-11T21:08:54.170Z,99.90
2023-03-11T21:11:21.024Z,99.90
2023-03-11T21:13:47.859Z,99.90
2023-03-11T21:16:14.903Z,99.90
2023-03-11T21:18:43.161Z,99.90
2023-03-11T21:21:11.753Z,99.90
2023-03-11T21:23:39.247Z,99.90
2023-03-11T21:26:06.602Z,99.90
2023-03-11T21:28:34.544Z,99.90
2023-03-11T21:31:02.589Z,99.90
2023-03-11T21:33:29.679Z,99.90
2023-03-11T21:35:57.759Z,99.90
2023-03-11T21:38:25.017Z,99.90
2023-03-11T21:40:53.067Z,99.90
2023-03-11T21:43:20.904Z,99.90
2023-03-11T21:45:47.855Z,99.90
2023-03-11T21:48:14.913Z,99.90
2023-03-11T21:50:42.012Z,99.90
2023-03-11T21:53:08.968Z,99.90
2023-03-11T21:55:35.859Z,99.90
2023-03-11T21:58:02.731Z,99.90
2023-03-11T22:00:29.659Z,99.90
2023-03-11T22:02:56.600Z,99.90
2023-03-11T22:05:23.451Z,99.90
2023-03-11T22:07:50.500Z,99.90
2023-03-11T22:10:17.705Z,99.90
2023-03-11T22:12:44.598Z,99.90
2023-03-11T22:15:11.820Z,99.90
2023-03-11T22:17:38.689Z,99.90
2023-03-11T22:20:05.919Z,99.90
2023-03-11T22:22:33.663Z,99.90
2023-03-11T22:25:00.434Z,99.90
2023-03-11T22:27:27.296Z,99.90
2023-03-11T22:29:54.085Z,99.90
2023-03-11T22:32:20.899Z,99.90
2023-03-11T22:34:47.722Z,99.90
2023-03-11T22:37:14.618Z,99.90
2023-03-11T22:39:41.381Z,99.90
2023-03-11T22:42:08.194Z,99.90
2023-03-11T22:44:34.935Z,99.90
2023-03-11T22:47:01.746Z,99.90
2023-03-11T22:49:28.695Z,99.90
2023-03-11T22:51:55.491Z,99.90
2023-03-11T22:54:22.578Z,99.90
2023-03-11T22:56:49.394Z,99.90
2023-03-11T22:59:16.086Z,99.90
2023-03-11T23:01:42.828Z,99.90
2023-03-11T23:04:09.581Z,99.90
2023-03-11T23:06:36.467Z,99.90
2023-03-11T23:09:03.848Z,99.90
2023-03-11T23:11:30.735Z,99.90
2023-03-11T23:13:57.455Z,99.90
2023-03-11T23:16:24.356Z,99.90
2023-03-11T23:18:52.178Z,99.90
2023-03-11T23:21:37.572Z,99.90
2023-03-11T23:24:05.981Z,99.90
2023-03-11T23:26:33.690Z,99.90
2023-03-11T23:29:01.590Z,99.90
2023-03-11T23:31:28.662Z,99.90
2023-03-11T23:33:56.026Z,99.90
2023-03-11T23:36:23.629Z,99.90
2023-03-11T23:38:51.001Z,99.90
2023-03-11T23:41:19.461Z,99.90
2023-03-11T23:43:46.526Z,99.90
2023-03-11T23:46:13.822Z,99.90
2023-03-11T23:48:41.054Z,99.90
2023-03-11T23:51:10.798Z,99.90
2023-03-11T23:53:38.226Z,99.90
2023-03-11T23:56:11.970Z,99.90
2023-03-11T23:58:38.831Z,99.90
